Time;durP1;ratioP1;P1;durP2;ratioP2;P2;SDS_P1;SDS_P2;PMS_P1;PMS_P2;Temp;Humidity;BMP_temperature;BMP_pressure;BME280_temperature;BME280_humidity;BME280_pressure;Samples;Min_cycle;Max_cycle;Signal;HPM_P1;HPM_P2
2022/09/29 00:00:09;;;;;;;11.18;6.82;;;;;;;16.85;100.00;99785.56;4993155;28;20057;-53
2022/09/29 00:02:34;;;;;;;9.45;6.35;;;;;;;16.54;100.00;99792.69;4998327;28;20053;-52
2022/09/29 00:05:00;;;;;;;9.60;6.50;;;;;;;16.23;100.00;99787.88;4997368;28;20043;-51
2022/09/29 00:07:27;;;;;;;13.30;6.97;;;;;;;15.81;100.00;99789.44;4995245;28;20031;-49
2022/09/29 00:09:52;;;;;;;12.52;8.00;;;;;;;17.08;100.00;99796.22;5000444;28;20280;-52
2022/09/29 00:12:18;;;;;;;15.93;7.97;;;;;;;15.84;100.00;99786.22;5017650;28;20026;-51
2022/09/29 00:14:43;;;;;;;13.33;7.30;;;;;;;15.89;100.00;99788.97;5011040;28;20030;-48
2022/09/29 00:17:09;;;;;;;9.73;6.83;;;;;;;16.17;100.00;99789.75;5005108;28;20273;-53
2022/09/29 00:19:35;;;;;;;10.73;7.05;;;;;;;16.15;100.00;99791.91;5000899;28;20031;-51
2022/09/29 00:22:00;;;;;;;14.13;7.57;;;;;;;15.75;100.00;99791.25;5002568;28;20049;-51
2022/09/29 00:24:26;;;;;;;12.90;7.30;;;;;;;15.68;100.00;99793.34;5016956;28;20046;-48
2022/09/29 00:26:52;;;;;;;11.35;7.18;;;;;;;15.96;100.00;99796.88;5006161;28;20336;-50
2022/09/29 00:29:18;;;;;;;12.35;7.22;;;;;;;16.07;100.00;99788.88;5001332;28;20054;-48
2022/09/29 00:31:43;;;;;;;10.77;7.13;;;;;;;16.18;100.00;99790.56;4996522;28;20026;-50
2022/09/29 00:34:09;;;;;;;15.10;8.00;;;;;;;16.31;100.00;99789.28;4992672;28;20058;-51
2022/09/29 00:36:35;;;;;;;15.75;8.63;;;;;;;15.91;100.00;99786.88;5011519;28;20061;-49
2022/09/29 00:39:00;;;;;;;14.67;9.00;;;;;;;15.77;100.00;99789.13;5005783;28;20046;-51
2022/09/29 00:41:32;;;;;;;16.63;8.60;;;;;;;15.55;100.00;99782.97;5015638;28;20026;-51
2022/09/29 00:44:00;;;;;;;18.13;9.05;;;;;;;15.37;100.00;99786.84;5008952;28;20031;-52
2022/09/29 00:46:43;;;;;;;19.20;8.93;;;;;;;15.12;100.00;99782.81;4999636;28;20046;-49
2022/09/29 00:49:16;;;;;;;15.50;9.30;;;;;;;15.42;100.00;99786.88;4998725;28;20061;-51
2022/09/29 00:51:47;;;;;;;18.70;9.55;;;;;;;15.47;100.00;99786.97;4999592;28;20068;-47
2022/09/29 00:54:13;;;;;;;14.48;8.82;;;;;;;15.31;100.00;99786.78;5007776;28;20106;-48
2022/09/29 00:56:41;;;;;;;16.73;8.95;;;;;;;15.28;100.00;99791.88;5014738;28;20045;-49
2022/09/29 00:59:11;;;;;;;15.18;9.40;;;;;;;15.54;100.00;99787.56;5005051;28;20038;-51
2022/09/29 01:01:37;;;;;;;19.40;10.32;;;;;;;15.65;100.00;99795.75;5006518;28;20038;-50
2022/09/29 01:04:13;;;;;;;16.10;9.00;;;;;;;15.18;100.00;99788.00;4992282;28;20047;-49
2022/09/29 01:06:45;;;;;;;17.27;9.50;;;;;;;15.28;100.00;99784.59;5003513;28;20025;-50
2022/09/29 01:09:14;;;;;;;15.15;9.75;;;;;;;15.22;100.00;99785.59;4997903;28;20076;-51
2022/09/29 01:11:41;;;;;;;18.98;10.40;;;;;;;15.29;100.00;99782.72;5000818;28;20126;-51
2022/09/29 01:14:09;;;;;;;16.08;8.95;;;;;;;15.05;100.00;99785.69;5014147;28;20045;-51
2022/09/29 01:16:36;;;;;;;16.50;9.02;;;;;;;15.17;100.00;99785.53;5007659;28;20053;-51
2022/09/29 01:19:15;;;;;;;15.73;9.65;;;;;;;15.31;100.00;99785.97;5007378;28;20057;-51
2022/09/29 01:22:06;;;;;;;14.80;8.73;;;;;;;15.57;100.00;99781.66;5010289;28;20054;-51
2022/09/29 01:25:17;;;;;;;18.95;9.95;;;;;;;15.65;100.00;99782.25;4998921;28;20104;-51
2022/09/29 01:28:25;;;;;;;13.80;9.05;;;;;;;15.26;100.00;99775.97;4998511;28;20047;-48
2022/09/29 01:31:21;;;;;;;17.15;9.65;;;;;;;15.11;100.00;99786.56;5003516;28;20035;-50
2022/09/29 01:34:05;;;;;;;14.80;8.27;;;;;;;15.19;100.00;99783.41;4997307;28;20060;-52
2022/09/29 01:36:46;;;;;;;14.98;9.18;;;;;;;15.49;100.00;99791.00;5006644;28;20051;-49
2022/09/29 01:39:34;;;;;;;16.50;9.63;;;;;;;15.26;100.00;99786.75;5016706;28;20066;-47
2022/09/29 01:42:10;;;;;;;16.67;9.75;;;;;;;15.64;100.00;99789.56;4990811;28;20039;-53
2022/09/29 01:44:51;;;;;;;18.83;9.35;;;;;;;15.72;100.00;99786.38;5006471;28;20101;-53
2022/09/29 01:47:32;;;;;;;13.93;9.13;;;;;;;15.90;100.00;99796.00;4999914;28;20057;-49
2022/09/29 01:50:14;;;;;;;15.13;9.55;;;;;;;15.86;100.00;99784.06;4990296;28;20051;-56
2022/09/29 01:52:44;;;;;;;14.75;9.52;;;;;;;16.11;100.00;99790.78;5005730;28;20042;-53
2022/09/29 01:55:15;;;;;;;16.63;10.23;;;;;;;15.58;100.00;99788.69;5012081;28;20028;-54
2022/09/29 01:57:56;;;;;;;13.43;9.05;;;;;;;15.81;100.00;99788.63;5019736;28;20057;-49
2022/09/29 02:00:30;;;;;;;17.17;9.77;;;;;;;14.72;100.00;99790.13;5002003;28;20021;-54
2022/09/29 02:03:13;;;;;;;13.85;8.90;;;;;;;14.30;100.00;99794.06;4997241;28;20061;-53
2022/09/29 02:05:45;;;;;;;19.45;9.63;;;;;;;14.60;100.00;99790.19;5008331;28;20045;-52
2022/09/29 02:08:37;;;;;;;18.25;10.40;;;;;;;15.02;100.00;99789.72;5015971;28;20088;-54
2022/09/29 02:11:07;;;;;;;27.35;10.85;;;;;;;15.17;100.00;99789.06;5015934;28;20101;-49
2022/09/29 02:13:43;;;;;;;18.85;10.75;;;;;;;15.20;100.00;99793.13;5012943;28;20035;-53
2022/09/29 02:16:13;;;;;;;20.30;11.32;;;;;;;15.38;100.00;99801.94;5009866;28;20042;-54
2022/09/29 02:18:53;;;;;;;17.17;9.98;;;;;;;15.48;100.00;99799.38;4993552;28;20118;-53
2022/09/29 02:21:20;;;;;;;18.10;11.52;;;;;;;15.97;100.00;99800.38;5001971;28;20041;-48
2022/09/29 02:23:45;;;;;;;14.68;10.07;;;;;;;16.24;100.00;99794.91;4994658;28;20035;-52
2022/09/29 02:26:12;;;;;;;23.70;11.33;;;;;;;16.05;100.00;99798.03;5012738;28;20046;-52
2022/09/29 02:28:38;;;;;;;18.90;10.95;;;;;;;16.12;100.00;99797.78;5018808;28;20044;-51
2022/09/29 02:31:04;;;;;;;17.98;10.90;;;;;;;15.26;100.00;99792.13;5008369;28;20035;-50
2022/09/29 02:33:29;;;;;;;21.38;11.30;;;;;;;15.62;100.00;99791.69;5005252;28;20030;-49
2022/09/29 02:35:59;;;;;;;22.77;11.25;;;;;;;15.61;100.00;99793.56;5010297;28;20043;-51
2022/09/29 02:38:41;;;;;;;19.38;11.95;;;;;;;15.71;100.00;99792.84;5004804;28;20096;-52
2022/09/29 02:41:29;;;;;;;19.20;11.05;;;;;;;16.04;100.00;99790.19;5023884;28;20043;-49
2022/09/29 02:43:54;;;;;;;;;;;;;;;15.51;100.00;99787.25;5007133;28;20050;-54
2022/09/29 02:46:26;;;;;;;17.40;10.63;;;;;;;15.15;100.00;99795.75;5024629;28;19993;-48
2022/09/29 02:49:34;;;;;;;20.85;11.70;;;;;;;15.74;100.00;99794.22;5005875;28;20063;-52
2022/09/29 02:52:18;;;;;;;21.25;11.15;;;;;;;14.81;100.00;99794.00;4951838;28;20107;-51
2022/09/29 02:54:52;;;;;;;20.98;12.55;;;;;;;14.24;100.00;99800.44;5012974;28;20033;-50
2022/09/29 02:57:38;;;;;;;19.55;11.43;;;;;;;14.26;100.00;99801.00;5011489;28;20023;-49
2022/09/29 03:00:10;;;;;;;21.60;13.15;;;;;;;14.34;100.00;99805.97;5002061;28;20043;-50
2022/09/29 03:02:37;;;;;;;19.45;12.30;;;;;;;14.46;100.00;99798.59;4993745;28;20039;-54
2022/09/29 03:05:06;;;;;;;23.60;12.98;;;;;;;14.98;100.00;99796.63;4993846;28;20045;-54
2022/09/29 03:07:32;;;;;;;20.77;12.10;;;;;;;15.32;100.00;99798.38;5011310;28;20113;-52
2022/09/29 03:09:58;;;;;;;20.77;13.23;;;;;;;15.26;100.00;99792.13;5004285;28;20039;-53
2022/09/29 03:12:23;;;;;;;19.93;12.60;;;;;;;15.54;100.00;99801.03;4986810;28;20063;-53
2022/09/29 03:14:49;;;;;;;21.00;13.20;;;;;;;15.01;100.00;99796.16;4992505;28;20039;-51
2022/09/29 03:17:14;;;;;;;22.48;12.82;;;;;;;15.47;100.00;99793.16;4994214;28;20061;-52
2022/09/29 03:19:40;;;;;;;22.50;13.03;;;;;;;15.70;100.00;99798.50;5017809;28;20106;-54
2022/09/29 03:22:05;;;;;;;23.70;13.43;;;;;;;15.38;100.00;99793.84;5000029;28;20036;-51
2022/09/29 03:24:31;;;;;;;21.98;13.10;;;;;;;15.31;100.00;99783.28;5003900;28;20295;-52
2022/09/29 03:26:57;;;;;;;25.57;13.33;;;;;;;14.52;100.00;99785.22;5002078;28;20102;-50
2022/09/29 03:29:22;;;;;;;21.50;13.90;;;;;;;14.83;100.00;99791.06;5015571;28;20284;-55
2022/09/29 03:31:48;;;;;;;26.48;15.45;;;;;;;14.86;100.00;99790.56;5010252;28;20111;-53
2022/09/29 03:34:14;;;;;;;25.38;13.70;;;;;;;14.55;100.00;99796.31;5003481;28;20027;-51
2022/09/29 03:36:40;;;;;;;24.33;13.20;;;;;;;14.67;100.00;99796.22;5013097;28;20028;-50
2022/09/29 03:39:06;;;;;;;23.00;13.17;;;;;;;15.39;100.00;99790.91;4993436;28;20038;-52
2022/09/29 03:41:32;;;;;;;23.08;13.40;;;;;;;15.31;100.00;99805.66;5000942;28;20043;-55
2022/09/29 03:43:57;;;;;;;27.20;12.57;;;;;;;15.15;100.00;99809.22;4998631;28;20062;-54
2022/09/29 03:46:23;;;;;;;26.23;12.67;;;;;;;14.54;100.00;99801.97;5004576;28;20035;-53
2022/09/29 03:48:49;;;;;;;24.63;12.23;;;;;;;14.23;100.00;99804.19;5000905;28;20330;-55
2022/09/29 03:51:14;;;;;;;24.52;12.35;;;;;;;14.38;100.00;99803.59;4993253;28;20043;-54
2022/09/29 03:53:40;;;;;;;20.87;11.60;;;;;;;14.48;100.00;99803.75;5023611;28;20073;-55
2022/09/29 03:56:07;;;;;;;19.33;11.77;;;;;;;14.57;100.00;99812.22;5023450;28;20048;-54
2022/09/29 03:58:32;;;;;;;24.57;13.37;;;;;;;14.53;100.00;99806.50;4996299;28;20070;-52
2022/09/29 04:01:00;;;;;;;25.15;13.98;;;;;;;14.63;100.00;99806.66;5012985;28;20020;-51
2022/09/29 04:03:25;;;;;;;25.25;14.32;;;;;;;14.22;100.00;99811.44;5003034;28;20051;-53
2022/09/29 04:05:50;;;;;;;23.07;13.80;;;;;;;14.64;100.00;99810.16;5003088;28;20056;-54
2022/09/29 04:08:16;;;;;;;24.27;14.30;;;;;;;15.11;100.00;99808.09;5002919;28;20030;-50
2022/09/29 04:10:42;;;;;;;26.80;14.87;;;;;;;15.17;100.00;99815.16;5023763;28;20035;-53
2022/09/29 04:13:07;;;;;;;28.00;14.43;;;;;;;14.59;100.00;99804.72;4991995;28;20269;-51
2022/09/29 04:15:33;;;;;;;25.02;15.63;;;;;;;14.61;100.00;99818.75;5010336;28;20037;-52
2022/09/29 04:17:59;;;;;;;24.15;14.95;;;;;;;15.03;100.00;99815.56;5012525;28;20039;-52
2022/09/29 04:20:25;;;;;;;24.23;15.27;;;;;;;15.46;100.00;99823.06;4990344;28;20038;-49
2022/09/29 04:22:51;;;;;;;29.70;15.43;;;;;;;14.86;100.00;99820.19;5002673;28;20027;-51
2022/09/29 04:25:17;;;;;;;22.98;14.07;;;;;;;14.67;100.00;99817.75;5012616;28;20061;-52
2022/09/29 04:27:43;;;;;;;24.07;15.17;;;;;;;14.85;100.00;99816.66;5002682;28;20035;-50
2022/09/29 04:30:09;;;;;;;24.17;15.23;;;;;;;14.83;100.00;99821.47;4992838;28;20050;-54
2022/09/29 04:32:36;;;;;;;24.50;14.27;;;;;;;15.02;100.00;99819.31;4994212;28;20086;-49
2022/09/29 04:35:02;;;;;;;26.05;14.73;;;;;;;14.49;100.00;99827.69;5000171;28;20065;-51
2022/09/29 04:37:28;;;;;;;28.25;15.43;;;;;;;14.34;100.00;99830.19;4997742;28;20098;-52
2022/09/29 04:39:53;;;;;;;26.03;14.47;;;;;;;14.54;100.00;99826.19;5007659;28;20042;-52
2022/09/29 04:42:20;;;;;;;23.10;14.27;;;;;;;14.74;100.00;99826.47;5006166;28;20284;-51
2022/09/29 04:44:45;;;;;;;31.92;15.15;;;;;;;14.82;100.00;99830.63;5000173;28;20031;-49
2022/09/29 04:47:12;;;;;;;23.40;14.68;;;;;;;14.74;100.00;99829.16;4996247;28;20063;-50
2022/09/29 04:49:38;;;;;;;35.47;16.23;;;;;;;14.58;100.00;99838.06;5004058;28;20035;-51
2022/09/29 04:52:04;;;;;;;25.63;15.23;;;;;;;14.45;100.00;99837.34;4989490;28;20109;-51
2022/09/29 04:54:31;;;;;;;24.40;15.13;;;;;;;14.79;100.00;99841.09;5000102;28;20034;-50
2022/09/29 04:56:56;;;;;;;26.92;14.45;;;;;;;14.46;100.00;99841.66;5010085;28;20061;-52
2022/09/29 04:59:22;;;;;;;23.30;14.63;;;;;;;14.67;100.00;99850.03;5014311;28;20060;-52
2022/09/29 05:01:48;;;;;;;21.17;13.20;;;;;;;14.77;100.00;99847.53;5004201;28;20098;-53
2022/09/29 05:04:14;;;;;;;27.35;14.93;;;;;;;14.51;100.00;99854.38;4989322;28;20264;-50
2022/09/29 05:06:40;;;;;;;26.67;14.93;;;;;;;14.42;100.00;99850.47;4998856;28;20110;-48
2022/09/29 05:09:06;;;;;;;32.80;13.43;;;;;;;14.32;100.00;99840.38;4992051;28;20064;-50
2022/09/29 05:11:32;;;;;;;26.25;15.32;;;;;;;14.26;100.00;99849.41;4999863;28;20045;-54
2022/09/29 05:13:57;;;;;;;20.77;14.20;;;;;;;14.24;100.00;99860.41;5007649;28;20047;-53
2022/09/29 05:16:24;;;;;;;25.67;14.35;;;;;;;14.37;100.00;99855.75;4989766;28;20035;-51
2022/09/29 05:18:49;;;;;;;25.67;15.10;;;;;;;14.26;100.00;99857.47;4999713;28;20054;-53
2022/09/29 05:21:15;;;;;;;23.70;14.38;;;;;;;14.55;100.00;99855.50;5007133;28;20068;-53
2022/09/29 05:23:41;;;;;;;29.27;15.38;;;;;;;14.24;100.00;99859.59;5003750;28;20126;-51
2022/09/29 05:26:08;;;;;;;29.35;14.60;;;;;;;14.56;100.00;99859.03;4995421;28;20027;-49
2022/09/29 05:28:35;;;;;;;22.40;13.23;;;;;;;14.73;100.00;99873.28;4998178;28;20061;-50
2022/09/29 05:31:03;;;;;;;24.27;13.05;;;;;;;14.60;100.00;99870.91;4997134;28;20057;-49
2022/09/29 05:33:28;;;;;;;25.23;14.18;;;;;;;14.79;100.00;99873.38;5023554;28;20084;-50
2022/09/29 05:35:54;;;;;;;27.60;14.73;;;;;;;14.66;100.00;99875.31;4990043;28;20054;-49
2022/09/29 05:38:21;;;;;;;24.30;14.18;;;;;;;14.49;100.00;99876.13;5028202;28;20272;-48
2022/09/29 05:40:48;;;;;;;23.02;13.75;;;;;;;14.62;100.00;99883.03;4989064;28;20039;-50
2022/09/29 05:43:13;;;;;;;24.08;13.52;;;;;;;14.56;100.00;99892.09;5004269;28;20065;-48
2022/09/29 05:45:39;;;;;;;20.67;12.70;;;;;;;14.59;100.00;99897.00;5002354;28;20042;-52
2022/09/29 05:48:04;;;;;;;21.93;12.80;;;;;;;14.83;100.00;99890.66;5005252;28;20032;-50
2022/09/29 05:50:31;;;;;;;21.93;12.90;;;;;;;14.76;100.00;99891.66;5003784;28;20069;-52
2022/09/29 05:53:03;;;;;;;108.25;16.55;;;;;;;14.82;100.00;99895.22;5004702;28;20293;-48
2022/09/29 05:55:28;;;;;;;352.77;30.65;;;;;;;14.83;100.00;99893.34;5000570;28;20042;-48
2022/09/29 05:57:54;;;;;;;419.20;33.50;;;;;;;14.25;100.00;99890.78;4994710;28;20072;-52
2022/09/29 06:00:20;;;;;;;292.57;29.43;;;;;;;14.07;100.00;99898.03;5004780;28;20041;-47
2022/09/29 06:02:45;;;;;;;462.57;33.63;;;;;;;13.52;100.00;99894.84;5024969;28;20274;-50
2022/09/29 06:05:11;;;;;;;465.57;38.90;;;;;;;14.29;100.00;99891.94;5006786;28;20031;-54
2022/09/29 06:07:36;;;;;;;193.82;20.65;;;;;;;14.54;100.00;99894.22;5014804;28;20337;-52
2022/09/29 06:10:02;;;;;;;256.70;25.30;;;;;;;14.39;100.00;99893.97;5004753;28;20043;-50
2022/09/29 06:12:33;;;;;;;348.23;29.60;;;;;;;14.70;100.00;99897.97;4994402;28;20043;-52
2022/09/29 06:14:58;;;;;;;58.53;14.85;;;;;;;15.12;100.00;99898.59;5001468;28;20031;-47
2022/09/29 06:17:24;;;;;;;190.10;18.60;;;;;;;15.21;100.00;99897.09;5027625;28;20032;-53
2022/09/29 06:19:51;;;;;;;80.60;15.13;;;;;;;15.06;100.00;99903.09;5018061;28;20332;-52
2022/09/29 06:22:18;;;;;;;190.88;21.42;;;;;;;14.84;100.00;99913.81;5017217;28;20034;-49
2022/09/29 06:24:44;;;;;;;57.63;14.70;;;;;;;14.81;100.00;99914.31;5001761;28;20065;-51
2022/09/29 06:27:10;;;;;;;69.30;15.20;;;;;;;15.19;100.00;99907.28;5019432;28;20032;-52
2022/09/29 06:29:35;;;;;;;133.73;19.08;;;;;;;15.04;100.00;99916.81;5023891;28;20073;-51
2022/09/29 06:32:02;;;;;;;332.70;27.17;;;;;;;14.91;100.00;99915.28;5014014;28;20044;-51
2022/09/29 06:34:28;;;;;;;128.27;16.60;;;;;;;14.92;100.00;99932.25;5004242;28;20039;-51
2022/09/29 06:39:37;;;;;;;126.00;14.95;;;;;;;14.65;100.00;99932.88;4993598;28;20030;-50
2022/09/29 06:42:03;;;;;;;204.60;19.07;;;;;;;14.68;100.00;99934.28;4994034;28;20035;-50
2022/09/29 06:44:29;;;;;;;172.07;18.27;;;;;;;14.52;100.00;99935.88;5004361;28;20097;-50
2022/09/29 06:46:55;;;;;;;39.60;12.68;;;;;;;14.95;100.00;99944.41;4994041;28;20046;-51
2022/09/29 06:49:22;;;;;;;67.68;14.20;;;;;;;15.46;100.00;99933.53;5004277;28;20048;-48
2022/09/29 06:51:49;;;;;;;134.95;19.80;;;;;;;15.50;100.00;99940.03;5002721;28;20082;-50
2022/09/29 06:54:17;;;;;;;53.40;14.75;;;;;;;15.13;100.00;99954.06;5001321;28;20044;-52
2022/09/29 06:56:50;;;;;;;80.72;15.77;;;;;;;14.89;100.00;99944.34;5014482;28;20065;-51
2022/09/29 06:59:17;;;;;;;247.65;23.45;;;;;;;14.93;100.00;99951.91;5024336;28;20064;-51
2022/09/29 07:01:43;;;;;;;97.75;19.73;;;;;;;14.91;100.00;99957.53;5003807;28;20094;-50
2022/09/29 07:04:08;;;;;;;154.70;19.70;;;;;;;14.59;100.00;99955.38;4993510;28;20047;-51
2022/09/29 07:06:34;;;;;;;65.35;17.20;;;;;;;14.72;100.00;99955.06;4993389;28;20042;-49
2022/09/29 07:09:00;;;;;;;45.70;16.50;;;;;;;14.14;100.00;99952.47;5008149;28;20035;-49
2022/09/29 07:11:26;;;;;;;25.63;15.53;;;;;;;14.48;100.00;99955.19;4990776;28;20027;-50
2022/09/29 07:13:52;;;;;;;27.25;16.20;;;;;;;14.40;100.00;99962.84;4993393;28;20296;-49
2022/09/29 07:16:18;;;;;;;33.50;16.38;;;;;;;14.65;100.00;99961.66;5006210;28;20060;-49
2022/09/29 07:18:45;;;;;;;28.60;17.27;;;;;;;14.63;100.00;99957.31;5017838;28;20453;-51
2022/09/29 07:21:16;;;;;;;32.15;19.30;;;;;;;14.74;100.00;99958.34;4997157;28;20102;-48
2022/09/29 07:23:44;;;;;;;29.58;20.25;;;;;;;14.52;100.00;99960.91;5010819;28;20047;-53
2022/09/29 07:26:10;;;;;;;31.65;18.98;;;;;;;14.61;100.00;99964.03;5002749;28;20035;-53
2022/09/29 07:28:37;;;;;;;33.13;19.55;;;;;;;14.77;100.00;99963.25;4996194;28;20138;-53
2022/09/29 07:31:05;;;;;;;28.80;18.25;;;;;;;14.85;100.00;99961.22;4993500;28;20029;-54
2022/09/29 07:33:32;;;;;;;30.15;17.67;;;;;;;15.12;100.00;99968.59;5013885;28;20090;-52
2022/09/29 07:35:59;;;;;;;26.45;17.85;;;;;;;15.22;100.00;99965.25;5001359;28;20064;-51
2022/09/29 07:38:26;;;;;;;25.70;16.85;;;;;;;15.33;100.00;99975.91;5019373;28;20106;-48
2022/09/29 07:40:52;;;;;;;27.17;16.90;;;;;;;15.40;100.00;99974.91;5001383;28;20069;-49
2022/09/29 07:43:18;;;;;;;28.80;17.02;;;;;;;15.22;100.00;99974.13;5005122;28;20042;-53
2022/09/29 07:45:53;;;;;;;25.52;15.60;;;;;;;15.01;100.00;99971.16;4992747;28;20035;-54
2022/09/29 07:48:18;;;;;;;26.58;17.80;;;;;;;15.58;100.00;99971.91;4998112;28;20035;-49
2022/09/29 07:50:44;;;;;;;30.57;16.43;;;;;;;15.46;100.00;99979.31;5004879;28;20057;-54
2022/09/29 07:53:10;;;;;;;24.65;16.75;;;;;;;15.51;100.00;99990.16;5003422;28;20042;-50
2022/09/29 07:55:37;;;;;;;27.58;16.35;;;;;;;16.52;100.00;99986.44;5005308;28;20039;-51
2022/09/29 07:58:02;;;;;;;25.98;16.35;;;;;;;16.54;100.00;99992.41;4995733;28;20051;-55
2022/09/29 08:00:32;;;;;;;24.73;16.57;;;;;;;16.68;100.00;99990.91;4988875;28;20039;-54
2022/09/29 08:03:02;;;;;;;23.03;15.20;;;;;;;16.82;100.00;99998.56;5001123;28;20043;-51
2022/09/29 08:05:32;;;;;;;27.90;15.93;;;;;;;16.84;100.00;100002.66;4999317;28;20273;-52
2022/09/29 08:08:04;;;;;;;26.60;15.77;;;;;;;16.91;100.00;100002.44;5001370;28;20272;-52
2022/09/29 08:10:31;;;;;;;28.10;15.90;;;;;;;16.94;100.00;100001.91;5020927;28;20277;-53
2022/09/29 08:12:57;;;;;;;24.03;15.20;;;;;;;17.21;100.00;100014.56;4999619;28;20319;-53
2022/09/29 08:15:23;;;;;;;23.63;14.90;;;;;;;17.24;100.00;100011.31;5014697;28;20297;-52
2022/09/29 08:17:52;;;;;;;28.23;16.13;;;;;;;17.42;100.00;100014.69;5019441;28;20031;-52
2022/09/29 08:20:17;;;;;;;26.33;15.47;;;;;;;17.81;100.00;100018.94;5001563;28;20104;-51
2022/09/29 08:22:43;;;;;;;23.90;14.73;;;;;;;17.47;100.00;100022.81;5010002;28;20300;-50
2022/09/29 08:25:08;;;;;;;25.80;16.77;;;;;;;18.41;100.00;100013.19;5002812;28;20047;-53
2022/09/29 08:27:34;;;;;;;22.23;13.60;;;;;;;18.29;100.00;100021.56;5012811;28;20072;-52
2022/09/29 08:29:59;;;;;;;26.38;15.40;;;;;;;19.05;100.00;100032.78;5007812;28;20039;-53
2022/09/29 08:32:25;;;;;;;25.58;14.88;;;;;;;18.65;100.00;100037.84;4989417;28;20030;-52
2022/09/29 08:34:50;;;;;;;21.80;14.33;;;;;;;18.44;100.00;100040.53;5006950;28;20073;-52
2022/09/29 08:37:16;;;;;;;22.10;13.73;;;;;;;18.96;100.00;100035.19;4993370;28;20303;-52
2022/09/29 08:39:43;;;;;;;23.20;13.70;;;;;;;19.83;100.00;100044.22;5006618;28;20257;-52
2022/09/29 08:42:39;;;;;;;24.40;13.18;;;;;;;19.72;100.00;100054.34;5007189;28;20100;-51
2022/09/29 08:45:10;;;;;;;23.00;12.20;;;;;;;21.01;100.00;100054.72;5002586;28;20101;-55
2022/09/29 08:47:46;;;;;;;26.07;14.47;;;;;;;21.57;100.00;100061.53;4982240;28;20300;-53
2022/09/29 08:50:14;;;;;;;19.20;13.07;;;;;;;21.99;100.00;100061.91;5004860;28;20047;-50
2022/09/29 08:52:43;;;;;;;18.90;12.87;;;;;;;22.29;100.00;100072.69;4995290;28;20348;-54
2022/09/29 08:55:26;;;;;;;15.60;11.73;;;;;;;23.00;96.48;100066.50;5006230;28;20023;-51
2022/09/29 08:57:57;;;;;;;22.27;12.30;;;;;;;23.82;89.25;100077.88;4994337;28;20053;-53
2022/09/29 09:00:37;;;;;;;21.43;11.87;;;;;;;24.09;83.92;100084.44;5015170;28;20116;-53
2022/09/29 09:03:11;;;;;;;16.20;10.40;;;;;;;24.76;79.16;100088.47;5009558;28;20019;-54
2022/09/29 09:05:56;;;;;;;15.53;10.23;;;;;;;24.99;78.58;100093.94;4999772;28;20062;-52
2022/09/29 09:08:41;;;;;;;17.50;10.07;;;;;;;25.81;73.67;100092.91;4987181;28;20482;-52
2022/09/29 09:11:26;;;;;;;19.83;10.70;;;;;;;26.09;69.99;100089.94;5001056;28;20031;-53
2022/09/29 09:14:25;;;;;;;15.87;9.47;;;;;;;26.82;66.39;100099.53;4997417;28;20039;-51
2022/09/29 09:17:22;;;;;;;16.47;9.93;;;;;;;26.93;65.95;100099.25;5002250;28;20045;-49
2022/09/29 09:20:11;;;;;;;13.63;9.48;;;;;;;27.65;65.42;100106.97;4997957;28;20095;-53
2022/09/29 09:22:54;;;;;;;15.33;10.00;;;;;;;27.77;62.52;100110.63;4990287;28;20113;-53
2022/09/29 09:25:32;;;;;;;18.20;10.40;;;;;;;28.55;58.32;100113.28;5010587;28;20038;-53
2022/09/29 09:28:16;;;;;;;22.07;9.20;;;;;;;28.98;56.96;100116.81;5019749;28;20065;-52
2022/09/29 09:30:50;;;;;;;14.23;10.13;;;;;;;28.54;56.62;100119.09;4971735;28;20045;-52
2022/09/29 09:33:31;;;;;;;14.03;9.10;;;;;;;29.03;55.53;100121.31;5010315;28;20042;-53
2022/09/29 09:36:04;;;;;;;17.83;10.27;;;;;;;28.64;55.66;100118.72;5005099;28;20126;-53
2022/09/29 09:38:55;;;;;;;15.65;9.65;;;;;;;29.41;54.95;100122.25;4991577;28;20046;-53
2022/09/29 09:41:24;;;;;;;15.23;8.70;;;;;;;29.56;52.24;100123.53;5002077;28;20043;-52
2022/09/29 09:43:57;;;;;;;13.57;8.90;;;;;;;30.00;51.05;100120.22;5015110;28;20061;-52
2022/09/29 09:46:38;;;;;;;17.13;8.98;;;;;;;30.28;49.74;100119.53;4988818;28;20035;-54
2022/09/29 09:49:09;;;;;;;12.48;8.48;;;;;;;30.21;47.22;100133.06;5000878;28;20077;-51
2022/09/29 09:52:17;;;;;;;18.42;8.38;;;;;;;32.06;44.67;100136.13;4989135;28;20043;-53
2022/09/29 09:54:49;;;;;;;16.30;8.23;;;;;;;31.89;43.15;100140.91;5010442;28;20041;-52
2022/09/29 09:57:39;;;;;;;11.45;7.95;;;;;;;32.39;43.03;100137.69;5007337;28;20030;-53
2022/09/29 10:00:12;;;;;;;14.07;8.13;;;;;;;31.92;43.38;100136.59;4987247;28;20085;-53
2022/09/29 10:02:47;;;;;;;18.27;7.80;;;;;;;32.99;41.83;100138.53;4990901;28;20031;-54
2022/09/29 10:05:19;;;;;;;11.13;7.45;;;;;;;33.81;40.96;100146.72;4997546;28;20030;-51
2022/09/29 10:07:47;;;;;;;15.25;8.23;;;;;;;32.86;41.36;100135.88;5005831;28;20031;-53
2022/09/29 10:10:22;;;;;;;15.32;7.43;;;;;;;32.69;41.50;100136.34;5008591;28;20040;-50
2022/09/29 10:12:56;;;;;;;11.73;7.80;;;;;;;33.44;40.03;100150.84;5000527;28;20035;-53
2022/09/29 10:15:27;;;;;;;10.45;7.32;;;;;;;34.03;39.15;100147.06;5021276;28;20041;-54
2022/09/29 10:18:15;;;;;;;13.90;7.57;;;;;;;34.07;38.12;100150.69;4999062;28;20121;-54
2022/09/29 10:20:41;;;;;;;12.32;7.88;;;;;;;34.02;37.86;100151.03;4996820;28;20106;-56
2022/09/29 10:23:22;;;;;;;8.48;5.65;;;;;;;33.25;37.37;100148.91;4995845;28;20039;-52
2022/09/29 10:25:58;;;;;;;11.27;6.55;;;;;;;33.99;36.94;100160.09;4995939;28;20068;-51
2022/09/29 10:28:27;;;;;;;10.43;6.90;;;;;;;34.18;36.71;100156.41;5003315;28;20042;-52
2022/09/29 10:30:54;;;;;;;8.95;6.13;;;;;;;34.45;35.98;100159.97;5007969;28;20060;-54
2022/09/29 10:33:24;;;;;;;8.48;5.57;;;;;;;33.15;36.49;100143.97;5020726;28;20102;-55
2022/09/29 10:36:01;;;;;;;8.07;4.78;;;;;;;34.83;35.62;100159.25;5015412;28;20054;-54
2022/09/29 10:38:27;;;;;;;10.18;5.40;;;;;;;33.19;37.10;100150.38;5000009;28;20044;-55
2022/09/29 10:40:58;;;;;;;12.55;5.78;;;;;;;32.84;37.46;100154.81;5001483;28;20056;-52
2022/09/29 10:43:30;;;;;;;6.88;4.78;;;;;;;36.96;32.31;100162.06;5012184;28;20040;-54
2022/09/29 10:45:57;;;;;;;8.32;5.40;;;;;;;34.29;34.28;100159.31;5008185;28;20032;-51
2022/09/29 10:48:25;;;;;;;7.18;4.72;;;;;;;33.79;35.25;100156.56;5000093;28;20122;-52
2022/09/29 10:51:18;;;;;;;7.63;4.78;;;;;;;35.82;32.63;100162.66;5003251;28;20035;-53
2022/09/29 10:53:44;;;;;;;6.88;3.80;;;;;;;35.50;32.13;100163.13;5006371;28;20081;-51
2022/09/29 10:56:23;;;;;;;7.13;4.57;;;;;;;34.81;32.96;100153.25;5000700;28;20038;-52
2022/09/29 10:58:57;;;;;;;8.00;4.40;;;;;;;36.83;31.78;100165.25;5005839;28;20037;-52
2022/09/29 11:01:25;;;;;;;8.95;4.80;;;;;;;35.71;31.96;100161.75;4991662;28;20106;-55
2022/09/29 11:04:05;;;;;;;6.35;4.30;;;;;;;35.35;31.75;100164.19;5001418;28;20039;-54
2022/09/29 11:06:34;;;;;;;7.28;3.83;;;;;;;36.19;31.19;100162.91;4998719;28;20061;-50
2022/09/29 11:09:24;;;;;;;7.47;4.55;;;;;;;37.72;29.60;100170.59;4991369;28;20090;-52
2022/09/29 11:11:57;;;;;;;9.65;4.93;;;;;;;37.56;30.28;100165.41;4992386;28;20030;-53
2022/09/29 11:14:25;;;;;;;6.03;4.55;;;;;;;37.58;29.69;100169.38;4987319;28;20030;-53
2022/09/29 11:16:54;;;;;;;6.68;4.35;;;;;;;37.15;29.64;100170.13;5003369;28;20059;-53
2022/09/29 11:19:21;;;;;;;8.90;4.75;;;;;;;37.62;29.40;100174.19;5002875;28;20032;-55
2022/09/29 11:22:23;;;;;;;8.70;4.57;;;;;;;38.66;28.24;100181.59;5001060;28;20034;-57
2022/09/29 11:25:05;;;;;;;7.82;4.45;;;;;;;37.51;29.20;100171.41;4991764;28;20054;-55
2022/09/29 11:27:59;;;;;;;7.95;4.40;;;;;;;37.14;29.51;100167.75;4991357;28;20102;-54
2022/09/29 11:30:40;;;;;;;7.43;4.10;;;;;;;38.25;29.28;100174.53;5003407;28;20057;-51